Time;durP1;ratioP1;P1;durP2;ratioP2;P2;SDS_P1;SDS_P2;PMS_P1;PMS_P2;Temp;Humidity;BMP_temperature;BMP_pressure;BME280_temperature;BME280_humidity;BME280_pressure;Samples;Min_cycle;Max_cycle;Signal;HPM_P1;HPM_P2
2021/12/24 00:02:05;;;;;;;18.67;10.77;;;5.00;94.60;;;;;;5104728;28;20039;-58
2021/12/24 00:04:32;;;;;;;17.77;10.60;;;5.00;94.60;;;;;;5077292;28;20437;-58
2021/12/24 00:06:57;;;;;;;15.75;10.07;;;5.00;94.60;;;;;;5103537;28;20118;-59
2021/12/24 00:09:26;;;;;;;17.10;9.88;;;5.00;94.70;;;;;;5096183;28;20166;-58
2021/12/24 00:11:59;;;;;;;19.13;10.00;;;5.00;94.70;;;;;;5094314;28;20035;-57
2021/12/24 00:14:30;;;;;;;15.13;9.57;;;5.20;94.70;;;;;;5113039;28;20046;-53
2021/12/24 00:17:02;;;;;;;14.05;9.35;;;5.20;94.70;;;;;;5114467;28;20023;-53
2021/12/24 00:21:21;;;;;;;13.80;9.20;;;5.20;94.70;;;;;;5108903;27;20405;-60
2021/12/24 00:36:14;;;;;;;12.50;8.93;;;5.30;94.70;;;;;;5099096;28;20042;-54
2021/12/24 00:38:41;;;;;;;14.20;9.90;;;5.40;94.80;;;;;;5109942;28;20039;-51
2021/12/24 00:41:08;;;;;;;13.63;8.98;;;5.40;94.70;;;;;;5096258;28;20369;-56
2021/12/24 00:43:34;;;;;;;12.50;8.70;;;5.40;94.70;;;;;;5096214;28;20036;-51
2021/12/24 00:46:01;;;;;;;13.00;9.82;;;5.40;94.70;;;;;;5114287;28;20032;-50
2021/12/24 00:48:28;;;;;;;11.40;7.75;;;5.40;94.70;;;;;;5108935;28;20357;-48
2021/12/24 00:55:59;;;;;;;12.18;9.02;;;5.40;94.70;;;;;;5114859;27;20481;-49
2021/12/24 00:58:26;;;;;;;14.90;9.18;;;5.40;94.80;;;;;;5114519;27;20027;-56
2021/12/24 01:00:53;;;;;;;12.77;9.00;;;5.40;94.70;;;;;;5095583;28;20035;-56
2021/12/24 01:03:20;;;;;;;13.95;9.52;;;5.40;94.70;;;;;;5094551;28;20095;-59
2021/12/24 01:05:47;;;;;;;13.88;9.20;;;5.40;94.80;;;;;;5098722;28;20059;-60
2021/12/24 01:08:17;;;;;;;14.60;10.38;;;5.40;94.70;;;;;;5114026;28;20043;-61
2021/12/24 01:10:53;;;;;;;18.00;10.98;;;5.40;94.70;;;;;;5109379;28;20032;-61
2021/12/24 01:13:20;;;;;;;14.18;9.82;;;5.40;94.70;;;;;;5102784;28;20031;-61
2021/12/24 01:15:57;;;;;;;15.70;10.25;;;5.40;94.80;;;;;;5108092;28;20050;-61
2021/12/24 01:23:46;;;;;;;15.77;10.40;;;5.40;94.70;;;;;;5103913;28;20035;-59
2021/12/24 01:26:20;;;;;;;12.63;8.88;;;5.40;94.70;;;;;;5113471;28;20031;-57
2021/12/24 01:44:56;;;;;;;14.88;9.48;;;5.50;94.80;;;;;;5077991;28;20054;-53
2021/12/24 01:47:23;;;;;;;14.57;10.40;;;5.50;94.80;;;;;;5093443;28;20035;-57
2021/12/24 01:49:52;;;;;;;14.13;10.88;;;5.50;94.70;;;;;;5105122;28;20036;-59
2021/12/24 01:52:19;;;;;;;13.43;9.43;;;5.50;94.70;;;;;;5092505;28;20031;-60
2021/12/24 01:54:46;;;;;;;17.35;10.57;;;5.50;94.80;;;;;;5074807;28;20072;-60
2021/12/24 01:57:13;;;;;;;16.27;9.85;;;5.50;94.70;;;;;;5108351;28;20024;-59
2021/12/24 01:59:42;;;;;;;14.95;9.93;;;5.50;94.70;;;;;;5092655;28;20120;-58
2021/12/24 02:02:10;;;;;;;14.85;9.88;;;5.50;94.80;;;;;;5091352;28;20034;-59
2021/12/24 02:04:36;;;;;;;16.15;9.88;;;5.50;94.80;;;;;;5095507;28;20040;-57
2021/12/24 02:07:03;;;;;;;14.57;10.15;;;5.60;94.80;;;;;;5106338;28;20035;-55
2021/12/24 02:09:30;;;;;;;14.50;9.98;;;5.60;94.80;;;;;;5092614;28;20743;-51
2021/12/24 02:11:57;;;;;;;12.98;9.25;;;5.60;94.80;;;;;;5107185;28;20344;-54
2021/12/24 02:14:35;;;;;;;14.35;10.10;;;5.60;94.80;;;;;;5077080;28;20094;-55
2021/12/24 02:30:53;;;;;;;13.20;8.98;;;5.60;94.80;;;;;;5081531;28;20089;-60
2021/12/24 02:33:20;;;;;;;12.38;8.52;;;5.60;94.80;;;;;;5078613;28;20024;-60
2021/12/24 02:35:47;;;;;;;11.75;8.25;;;5.60;94.80;;;;;;5096100;28;20047;-57
2021/12/24 02:38:13;;;;;;;11.63;8.32;;;5.60;94.80;;;;;;5103181;28;20057;-60
2021/12/24 02:40:39;;;;;;;12.80;7.85;;;5.60;94.80;;;;;;5113022;28;20043;-59
2021/12/24 02:43:10;;;;;;;13.73;8.65;;;5.60;94.80;;;;;;5103111;28;20114;-59
2021/12/24 02:45:38;;;;;;;11.77;8.35;;;5.70;94.80;;;;;;5114009;28;20024;-60
2021/12/24 02:56:08;;;;;;;11.57;8.38;;;5.70;94.80;;;;;;5120562;27;20034;-60
2021/12/24 02:58:47;;;;;;;12.25;8.98;;;5.70;94.80;;;;;;5092554;28;20118;-61
2021/12/24 03:01:24;;;;;;;13.93;9.55;;;5.70;94.80;;;;;;5078974;28;20377;-61
2021/12/24 03:03:51;;;;;;;11.85;8.52;;;5.70;94.80;;;;;;5115617;28;20047;-61
2021/12/24 03:06:21;;;;;;;12.48;9.23;;;5.70;94.70;;;;;;5115343;28;20028;-60
2021/12/24 03:08:47;;;;;;;14.10;9.90;;;5.70;94.80;;;;;;5101620;28;20404;-60
2021/12/24 03:11:13;;;;;;;12.70;8.52;;;5.70;94.80;;;;;;5095932;28;20038;-60
2021/12/24 03:13:41;;;;;;;11.80;8.43;;;5.70;94.80;;;;;;5104245;28;20040;-61
2021/12/24 03:16:08;;;;;;;10.30;7.72;;;5.70;94.80;;;;;;5095601;28;20051;-61
2021/12/24 03:18:37;;;;;;;12.88;8.73;;;5.70;94.80;;;;;;5093534;28;20050;-61
2021/12/24 03:23:43;;;;;;;12.38;8.38;;;5.70;94.70;;;;;;5103886;28;20489;-61
2021/12/24 03:26:11;;;;;;;12.25;8.45;;;5.70;94.70;;;;;;5095051;28;20389;-61
2021/12/24 03:28:39;;;;;;;13.27;9.35;;;5.70;94.80;;;;;;5107327;28;20084;-61
2021/12/24 03:31:06;;;;;;;10.85;8.23;;;5.70;94.80;;;;;;5115387;28;20020;-61
2021/12/24 03:33:35;;;;;;;10.65;7.93;;;5.70;94.80;;;;;;5114636;28;20027;-61
2021/12/24 03:36:06;;;;;;;12.07;7.50;;;5.70;94.80;;;;;;5101146;28;20445;-61
2021/12/24 03:38:33;;;;;;;10.43;7.57;;;5.70;94.80;;;;;;5104610;28;20089;-61
2021/12/24 03:41:01;;;;;;;8.88;6.15;;;5.70;94.80;;;;;;5096899;28;20134;-61
2021/12/24 03:43:27;;;;;;;10.55;7.47;;;5.70;94.80;;;;;;5114069;28;20020;-61
2021/12/24 03:48:26;;;;;;;9.52;7.35;;;5.70;94.80;;;;;;5114350;28;20063;-61
2021/12/24 03:51:16;;;;;;;9.50;6.72;;;5.70;94.70;;;;;;5114211;28;20033;-60
2021/12/24 03:56:35;;;;;;;10.45;7.65;;;5.60;94.70;;;;;;5113656;27;20359;-58
2021/12/24 03:59:03;;;;;;;10.27;7.60;;;5.60;94.70;;;;;;5115264;27;20039;-58
2021/12/24 04:01:31;;;;;;;10.73;7.65;;;5.60;94.70;;;;;;5114482;28;20034;-60
2021/12/24 04:03:59;;;;;;;10.77;7.30;;;5.60;94.70;;;;;;5111621;28;20081;-61
2021/12/24 04:06:26;;;;;;;9.75;6.97;;;5.60;94.70;;;;;;5096546;28;20431;-61
2021/12/24 04:08:53;;;;;;;9.98;6.55;;;5.60;94.70;;;;;;5114798;28;20035;-61
2021/12/24 04:11:20;;;;;;;9.40;6.80;;;5.50;94.70;;;;;;5114262;28;20032;-61
2021/12/24 04:13:50;;;;;;;10.98;7.85;;;5.50;94.70;;;;;;5108433;28;20050;-61
2021/12/24 04:16:17;;;;;;;11.48;8.35;;;5.50;94.70;;;;;;5097336;28;20085;-61
2021/12/24 04:26:57;;;;;;;13.13;7.60;;;5.50;94.80;;;;;;5113687;28;20104;-61
2021/12/24 04:29:27;;;;;;;10.50;6.82;;;5.50;94.70;;;;;;5113545;28;20040;-61
2021/12/24 04:32:07;;;;;;;10.68;7.10;;;5.40;94.70;;;;;;5114271;28;20317;-61
2021/12/24 04:34:36;;;;;;;12.98;7.50;;;5.40;94.70;;;;;;5080687;28;20036;-60
2021/12/24 05:04:05;;;;;;;32.53;17.05;;;5.30;94.70;;;;;;5051284;28;20404;-61
2021/12/24 05:06:37;;;;;;;31.95;17.45;;;5.30;94.70;;;;;;5090492;28;20035;-61
2021/12/24 05:09:10;;;;;;;31.73;17.23;;;5.30;94.70;;;;;;5113905;28;20039;-61
2021/12/24 05:11:39;;;;;;;31.45;17.63;;;5.30;94.70;;;;;;5100196;28;20062;-61
2021/12/24 05:14:05;;;;;;;31.10;18.50;;;5.20;94.60;;;;;;5082550;28;20522;-61
2021/12/24 05:16:42;;;;;;;32.15;16.48;;;5.20;94.60;;;;;;5093304;28;20044;-61
2021/12/24 05:22:08;;;;;;;29.13;14.35;;;5.10;94.60;;;;;;5079162;28;20039;-61
2021/12/24 05:24:36;;;;;;;25.25;13.38;;;5.10;94.60;;;;;;5102107;28;20119;-61
2021/12/24 05:27:04;;;;;;;16.05;10.43;;;5.10;94.50;;;;;;5093053;28;20025;-61
2021/12/24 05:29:31;;;;;;;16.88;10.93;;;5.00;94.50;;;;;;5112157;28;20027;-61
2021/12/24 05:31:59;;;;;;;17.38;11.43;;;4.90;94.50;;;;;;5078528;28;20114;-61
2021/12/24 05:34:30;;;;;;;17.80;10.80;;;4.90;94.50;;;;;;5109221;28;20427;-61
2021/12/24 05:36:56;;;;;;;15.23;10.00;;;4.80;94.40;;;;;;5111690;28;20027;-61
2021/12/24 05:39:22;;;;;;;15.65;9.95;;;4.80;94.40;;;;;;5113256;28;20038;-58
2021/12/24 05:41:50;;;;;;;17.55;9.77;;;4.70;94.40;;;;;;5079380;28;20083;-60
2021/12/24 05:44:17;;;;;;;16.50;10.20;;;4.70;94.40;;;;;;5109724;28;20058;-59
2021/12/24 05:46:47;;;;;;;16.45;9.25;;;4.70;94.40;;;;;;5098627;28;20028;-59
2021/12/24 05:49:16;;;;;;;17.35;10.88;;;4.60;94.30;;;;;;5091566;28;20072;-59
2021/12/24 05:51:43;;;;;;;17.42;9.30;;;4.70;94.40;;;;;;5099368;28;20039;-59
2021/12/24 05:54:11;;;;;;;12.32;8.30;;;4.70;94.30;;;;;;5100969;28;20080;-61
2021/12/24 05:56:37;;;;;;;13.65;7.47;;;4.60;94.20;;;;;;5097531;28;20056;-61
2021/12/24 05:59:06;;;;;;;12.52;8.57;;;4.50;94.20;;;;;;5096213;28;20109;-61
2021/12/24 06:01:34;;;;;;;15.48;9.00;;;4.50;94.20;;;;;;5094652;28;20040;-59
2021/12/24 06:04:02;;;;;;;15.93;9.70;;;4.50;94.10;;;;;;5097577;28;20047;-60
2021/12/24 06:06:29;;;;;;;14.13;9.15;;;4.50;94.10;;;;;;5117347;28;20031;-60
2021/12/24 06:08:55;;;;;;;13.70;8.73;;;4.40;94.00;;;;;;5099051;28;20111;-60
2021/12/24 06:11:22;;;;;;;15.38;9.60;;;4.40;94.00;;;;;;5089571;28;20160;-59
2021/12/24 06:13:53;;;;;;;16.38;9.18;;;4.40;94.10;;;;;;5116562;28;20020;-59
2021/12/24 06:16:20;;;;;;;12.18;9.10;;;4.40;94.00;;;;;;5106325;28;20039;-58
2021/12/24 06:18:47;;;;;;;15.90;9.50;;;4.40;94.00;;;;;;5109707;27;20090;-57
2021/12/24 06:21:14;;;;;;;11.70;8.73;;;4.40;94.00;;;;;;5116610;28;20027;-58
2021/12/24 06:23:47;;;;;;;11.88;8.82;;;4.40;93.90;;;;;;5104013;28;20081;-58
2021/12/24 06:26:13;;;;;;;12.98;8.60;;;4.30;93.90;;;;;;5112327;28;20023;-59
2021/12/24 06:28:40;;;;;;;12.93;8.27;;;4.30;93.90;;;;;;5107511;28;20037;-58
2021/12/24 06:31:07;;;;;;;11.80;9.10;;;4.30;93.80;;;;;;5103013;28;20512;-57
2021/12/24 06:33:35;;;;;;;13.38;8.30;;;4.20;93.80;;;;;;5099025;28;20035;-58
2021/12/24 06:36:03;;;;;;;13.40;8.75;;;4.20;93.70;;;;;;5110791;28;20052;-58
2021/12/24 06:38:29;;;;;;;12.85;8.73;;;4.20;93.70;;;;;;5107023;28;20371;-60
2021/12/24 06:40:56;;;;;;;12.80;8.65;;;4.20;93.70;;;;;;5114956;28;20062;-61
2021/12/24 06:43:23;;;;;;;15.23;9.65;;;4.20;93.70;;;;;;5116301;28;20034;-60
2021/12/24 06:45:49;;;;;;;12.35;8.23;;;4.20;93.70;;;;;;5112781;28;20052;-61
2021/12/24 06:48:17;;;;;;;11.30;7.90;;;4.20;93.60;;;;;;5078858;28;20032;-61
2021/12/24 06:50:44;;;;;;;9.90;7.60;;;4.20;93.50;;;;;;5102137;28;20324;-61
2021/12/24 06:53:11;;;;;;;10.82;7.03;;;4.10;93.40;;;;;;5102117;28;20020;-58
2021/12/24 06:55:38;;;;;;;11.23;7.05;;;4.00;93.30;;;;;;5078269;28;20064;-60
2021/12/24 06:58:05;;;;;;;9.38;6.38;;;4.00;93.40;;;;;;5122654;27;20038;-59
2021/12/24 07:00:32;;;;;;;9.63;7.22;;;4.00;93.40;;;;;;5103690;28;20113;-60
2021/12/24 07:02:59;;;;;;;11.00;5.90;;;4.00;93.20;;;;;;5102101;28;20029;-61
2021/12/24 07:05:26;;;;;;;9.63;7.10;;;3.90;93.20;;;;;;5115858;28;20372;-61
2021/12/24 07:07:53;;;;;;;9.82;5.97;;;3.90;93.20;;;;;;5094384;28;20503;-60
2021/12/24 07:10:24;;;;;;;8.73;6.47;;;3.90;93.20;;;;;;5098228;28;20024;-59
2021/12/24 07:12:51;;;;;;;10.68;6.18;;;3.90;93.10;;;;;;5114314;28;20031;-58
2021/12/24 07:15:19;;;;;;;8.95;6.38;;;3.90;93.10;;;;;;5114952;28;20037;-58
2021/12/24 07:17:46;;;;;;;11.63;6.93;;;3.90;93.10;;;;;;5096760;27;20028;-59
2021/12/24 07:20:13;;;;;;;8.85;6.85;;;3.90;93.00;;;;;;5115731;28;20047;-58
2021/12/24 07:22:40;;;;;;;12.35;7.15;;;3.90;93.00;;;;;;5100792;28;20038;-60
2021/12/24 07:25:08;;;;;;;10.05;7.60;;;3.80;92.90;;;;;;5080226;28;20040;-61
2021/12/24 07:27:39;;;;;;;10.40;7.25;;;3.80;93.00;;;;;;5095250;28;20024;-60
2021/12/24 07:30:12;;;;;;;12.80;6.57;;;3.80;93.00;;;;;;5095009;28;20470;-60
2021/12/24 07:32:41;;;;;;;11.95;8.00;;;3.80;92.90;;;;;;5097081;28;20046;-60
2021/12/24 07:35:11;;;;;;;10.35;8.13;;;3.80;92.90;;;;;;5097235;28;20097;-59
2021/12/24 07:37:39;;;;;;;14.95;8.85;;;3.80;92.90;;;;;;5105577;28;20035;-58
2021/12/24 07:40:07;;;;;;;12.40;9.07;;;3.70;92.90;;;;;;5096768;28;20034;-57
2021/12/24 07:42:34;;;;;;;11.25;8.60;;;3.70;92.90;;;;;;5110905;28;20098;-58
2021/12/24 07:45:03;;;;;;;14.02;8.85;;;3.70;92.90;;;;;;5109506;28;20023;-56
2021/12/24 07:47:38;;;;;;;13.03;9.93;;;3.70;92.90;;;;;;5104909;28;20481;-58
2021/12/24 07:52:56;;;;;;;14.20;10.07;;;3.70;92.90;;;;;;5087837;28;20361;-58
2021/12/24 07:55:23;;;;;;;12.52;8.25;;;3.70;92.80;;;;;;5100326;28;20085;-59
2021/12/24 07:57:52;;;;;;;10.68;7.97;;;3.70;92.70;;;;;;5115027;27;20031;-57
2021/12/24 08:00:19;;;;;;;12.07;8.07;;;3.70;92.70;;;;;;5110601;28;20028;-60
2021/12/24 08:02:47;;;;;;;11.57;7.90;;;3.70;92.80;;;;;;5094726;28;20034;-59
2021/12/24 08:05:23;;;;;;;12.15;8.52;;;3.70;92.70;;;;;;5113018;28;20444;-59
2021/12/24 08:07:51;;;;;;;10.63;7.18;;;3.70;92.80;;;;;;5097288;28;20031;-58
2021/12/24 08:10:19;;;;;;;9.98;6.53;;;3.70;92.70;;;;;;5113559;28;20379;-57
2021/12/24 08:12:47;;;;;;;9.48;6.32;;;3.70;92.70;;;;;;5113669;28;20122;-60
2021/12/24 08:15:17;;;;;;;9.07;5.95;;;3.70;92.60;;;;;;5094011;28;20437;-61
2021/12/24 08:17:47;;;;;;;13.18;7.57;;;3.70;92.50;;;;;;5094818;27;20047;-61
2021/12/24 08:20:22;;;;;;;11.32;7.15;;;3.70;92.60;;;;;;5095884;28;20046;-61
2021/12/24 08:22:50;;;;;;;13.38;7.78;;;3.70;92.50;;;;;;5109915;28;20039;-61
2021/12/24 08:25:17;;;;;;;10.15;6.90;;;3.70;92.50;;;;;;5112286;28;20469;-61
2021/12/24 08:27:46;;;;;;;8.52;6.55;;;3.70;92.50;;;;;;5109876;28;20081;-61
2021/12/24 08:30:13;;;;;;;12.00;7.60;;;3.80;92.50;;;;;;5090454;28;20027;-61
2021/12/24 08:32:42;;;;;;;12.48;8.20;;;3.80;92.50;;;;;;5113163;28;20040;-60
2021/12/24 08:35:14;;;;;;;11.73;7.40;;;3.80;92.50;;;;;;5113172;28;20124;-60
2021/12/24 08:37:41;;;;;;;10.07;7.93;;;3.80;92.40;;;;;;5109877;28;20047;-60
2021/12/24 08:40:08;;;;;;;9.63;6.68;;;3.80;92.50;;;;;;5094628;28;20019;-60
2021/12/24 08:42:35;;;;;;;9.73;6.60;;;3.90;92.50;;;;;;5106850;28;20036;-60
2021/12/24 08:45:03;;;;;;;10.68;7.45;;;3.90;92.50;;;;;;5093712;28;20130;-59
2021/12/24 08:47:30;;;;;;;9.98;6.80;;;3.90;92.50;;;;;;5112203;28;20027;-60
2021/12/24 08:50:00;;;;;;;8.88;7.07;;;3.90;92.40;;;;;;5095543;28;20597;-60
2021/12/24 08:52:26;;;;;;;10.25;7.50;;;3.90;92.50;;;;;;5099647;28;20027;-60
2021/12/24 08:54:53;;;;;;;8.90;6.75;;;3.90;92.50;;;;;;5113145;28;20050;-61
2021/12/24 08:57:20;;;;;;;9.15;7.53;;;3.90;92.50;;;;;;5120085;27;20504;-61
2021/12/24 08:59:46;;;;;;;10.60;7.40;;;3.90;92.50;;;;;;5108092;28;20040;-60
2021/12/24 09:02:13;;;;;;;10.10;7.40;;;4.00;92.50;;;;;;5097295;28;20042;-60
2021/12/24 09:04:39;;;;;;;9.82;7.65;;;4.00;92.40;;;;;;5088119;28;20457;-60
2021/12/24 09:07:06;;;;;;;10.30;8.38;;;4.10;92.50;;;;;;5113127;28;20054;-60
2021/12/24 09:09:33;;;;;;;11.80;8.02;;;4.10;92.40;;;;;;5093699;28;20038;-59
2021/12/24 09:11:58;;;;;;;11.00;8.43;;;4.10;92.40;;;;;;5093401;28;20121;-59
2021/12/24 09:14:26;;;;;;;11.50;8.60;;;4.10;92.40;;;;;;5111657;28;20073;-58
2021/12/24 09:16:55;;;;;;;12.32;8.55;;;4.10;92.40;;;;;;5113898;28;20027;-58
2021/12/24 09:19:25;;;;;;;10.05;7.47;;;4.20;92.40;;;;;;5110183;28;20039;-58
2021/12/24 09:21:56;;;;;;;15.73;11.20;;;4.10;92.30;;;;;;5110722;28;20027;-57
2021/12/24 09:24:25;;;;;;;13.93;10.70;;;4.20;92.40;;;;;;5090050;28;20035;-57
2021/12/24 09:26:56;;;;;;;;;;;4.20;92.30;;;;;;5112646;28;20034;-55
2021/12/24 09:29:22;;;;;;;13.18;9.70;;;4.20;92.30;;;;;;5098323;28;19908;-58
2021/12/24 09:31:51;;;;;;;10.15;8.10;;;4.20;92.30;;;;;;5094588;28;20054;-59
2021/12/24 09:34:17;;;;;;;9.15;6.95;;;4.20;92.30;;;;;;5075205;28;20153;-58
2021/12/24 09:36:44;;;;;;;8.95;6.57;;;4.20;92.20;;;;;;5085015;28;20065;-56
2021/12/24 09:39:11;;;;;;;8.32;6.25;;;4.10;92.10;;;;;;5118305;28;20371;-60
2021/12/24 09:41:38;;;;;;;10.05;7.07;;;4.00;92.10;;;;;;5082075;28;20147;-59
2021/12/24 09:44:05;;;;;;;8.50;6.88;;;4.00;92.10;;;;;;5112455;28;20055;-61
2021/12/24 09:46:32;;;;;;;11.20;7.68;;;4.00;92.30;;;;;;5117859;28;20031;-59
2021/12/24 09:48:59;;;;;;;11.25;7.45;;;4.00;92.30;;;;;;5082280;28;20028;-60
2021/12/24 09:51:27;;;;;;;8.88;6.78;;;4.00;92.30;;;;;;5116319;28;20072;-61
2021/12/24 09:53:57;;;;;;;8.75;6.82;;;4.10;92.40;;;;;;5115573;28;20020;-61
2021/12/24 09:56:27;;;;;;;8.93;6.20;;;4.00;92.30;;;;;;5116856;27;20444;-61
2021/12/24 09:58:54;;;;;;;9.60;7.28;;;4.00;92.30;;;;;;5118370;27;20089;-60
2021/12/24 10:01:41;;;;;;;10.30;7.55;;;4.00;92.40;;;;;;5093742;28;20040;-58
2021/12/24 10:04:16;;;;;;;9.48;7.20;;;4.10;92.40;;;;;;5112982;28;20036;-61
2021/12/24 10:06:53;;;;;;;9.18;7.15;;;4.20;92.50;;;;;;5115147;28;20077;-61
2021/12/24 10:09:27;;;;;;;9.18;6.80;;;4.20;92.50;;;;;;5106493;28;20112;-61
2021/12/24 10:12:00;;;;;;;8.15;7.10;;;4.30;92.50;;;;;;5114642;28;20031;-61
2021/12/24 10:14:38;;;;;;;12.02;8.30;;;4.40;92.50;;;;;;5096323;28;20107;-61
2021/12/24 10:17:28;;;;;;;13.35;8.82;;;4.40;92.40;;;;;;5078863;28;20449;-61
2021/12/24 10:19:56;;;;;;;;;;;4.40;92.40;;;;;;5100951;28;20036;-61
2021/12/24 10:22:24;;;;;;;10.70;8.93;;;4.50;92.30;;;;;;5108795;28;19908;-61
2021/12/24 10:25:12;;;;;;;10.35;8.90;;;4.50;92.30;;;;;;5109087;28;20092;-61
2021/12/24 10:27:40;;;;;;;9.10;7.38;;;4.50;92.20;;;;;;5106279;28;20020;-61
2021/12/24 10:30:27;;;;;;;9.35;8.10;;;4.60;92.10;;;;;;5095948;28;20541;-60
2021/12/24 10:32:56;;;;;;;10.88;7.95;;;4.60;92.10;;;;;;5105782;28;20024;-60
2021/12/24 10:35:28;;;;;;;10.50;9.02;;;4.60;92.10;;;;;;5096644;28;20107;-57
2021/12/24 10:38:16;;;;;;;9.60;8.05;;;4.60;92.10;;;;;;5098704;28;20039;-56
2021/12/24 10:40:57;;;;;;;11.23;8.60;;;4.60;91.90;;;;;;5095906;28;20453;-55
2021/12/24 10:43:42;;;;;;;9.02;7.60;;;4.60;92.00;;;;;;5111140;28;20037;-56
2021/12/24 10:46:26;;;;;;;9.68;7.63;;;4.60;91.90;;;;;;5103352;28;20031;-50
2021/12/24 10:49:13;;;;;;;10.95;7.93;;;4.60;91.80;;;;;;5115953;28;20129;-54
2021/12/24 10:52:13;;;;;;;11.30;9.15;;;4.60;91.90;;;;;;5097425;28;20202;-54
2021/12/24 10:55:17;;;;;;;11.02;8.10;;;4.70;91.90;;;;;;5096105;28;20081;-51
2021/12/24 10:57:48;;;;;;;11.38;8.88;;;4.70;91.90;;;;;;5121827;27;20054;-50
2021/12/24 11:00:19;;;;;;;8.85;7.18;;;4.70;91.80;;;;;;5106214;28;20031;-50
2021/12/24 11:03:02;;;;;;;9.63;6.97;;;4.60;91.70;;;;;;5095737;28;20085;-51
2021/12/24 11:05:43;;;;;;;8.93;7.10;;;4.70;91.70;;;;;;5109917;28;20047;-53
2021/12/24 11:08:15;;;;;;;9.73;7.75;;;4.70;91.70;;;;;;5064992;28;20021;-50
2021/12/24 11:10:48;;;;;;;9.35;7.00;;;4.70;91.60;;;;;;5078340;28;20097;-51
2021/12/24 11:13:21;;;;;;;9.27;8.00;;;4.70;91.70;;;;;;5104085;28;20106;-51
2021/12/24 11:15:52;;;;;;;11.27;8.55;;;4.70;91.70;;;;;;5115912;28;20081;-47
2021/12/24 11:18:39;;;;;;;10.88;8.07;;;4.70;91.50;;;;;;5106655;27;20032;-48
2021/12/24 11:21:24;;;;;;;10.52;8.15;;;4.70;91.70;;;;;;5095500;28;20024;-53
2021/12/24 11:23:53;;;;;;;10.80;8.38;;;4.70;91.60;;;;;;5095742;28;20032;-51
2021/12/24 11:26:50;;;;;;;9.52;7.45;;;4.70;91.60;;;;;;5096247;28;20035;-50
2021/12/24 11:29:17;;;;;;;11.43;8.80;;;4.70;91.60;;;;;;5105744;28;20078;-54
2021/12/24 11:31:44;;;;;;;10.70;8.15;;;4.70;91.60;;;;;;5097241;28;20588;-53
2021/12/24 11:34:14;;;;;;;10.68;7.70;;;4.70;91.40;;;;;;5086084;28;20441;-52
2021/12/24 11:36:42;;;;;;;8.93;7.18;;;4.70;91.50;;;;;;5101825;28;20036;-51
2021/12/24 11:39:10;;;;;;;10.20;7.57;;;4.70;91.60;;;;;;5095576;28;20035;-53
2021/12/24 11:41:43;;;;;;;9.45;7.80;;;4.70;91.60;;;;;;5077061;28;20052;-54
2021/12/24 11:44:16;;;;;;;10.60;9.07;;;4.70;91.60;;;;;;5102818;28;20040;-52
2021/12/24 11:46:44;;;;;;;9.45;7.63;;;4.80;91.60;;;;;;5095556;28;20433;-53
2021/12/24 11:49:16;;;;;;;8.88;7.38;;;4.80;91.60;;;;;;5110336;28;20055;-59
2021/12/24 11:51:44;;;;;;;11.13;7.30;;;4.80;91.60;;;;;;5112831;28;20081;-61
2021/12/24 11:54:14;;;;;;;9.05;7.47;;;4.80;91.60;;;;;;5108735;28;20329;-60
2021/12/24 11:56:44;;;;;;;9.65;8.02;;;4.80;91.50;;;;;;5121975;27;20031;-57
2021/12/24 11:59:09;;;;;;;8.60;7.43;;;4.90;91.60;;;;;;5080914;28;20085;-58
2021/12/24 12:01:41;;;;;;;9.82;7.35;;;4.90;91.70;;;;;;5097000;28;20031;-58
2021/12/24 12:04:38;;;;;;;10.25;8.40;;;4.90;91.70;;;;;;5094615;28;20058;-59
2021/12/24 12:07:23;;;;;;;14.15;9.68;;;4.90;91.60;;;;;;5097468;28;20024;-59
2021/12/24 12:09:50;;;;;;;23.15;13.52;;;4.90;91.60;;;;;;5104559;28;20448;-61
2021/12/24 12:12:34;;;;;;;27.13;15.88;;;4.90;91.60;;;;;;5095699;28;20445;-61
2021/12/24 12:15:31;;;;;;;23.33;14.95;;;5.00;91.60;;;;;;5087683;28;20044;-61
2021/12/24 12:17:58;;;;;;;16.65;10.43;;;4.90;91.50;;;;;;5105469;27;20484;-60
2021/12/24 12:20:46;;;;;;;10.98;8.43;;;4.90;91.40;;;;;;5096818;28;20039;-60
2021/12/24 12:26:45;;;;;;;10.43;7.80;;;5.00;91.50;;;;;;5112601;28;20043;-57
2021/12/24 12:29:32;;;;;;;10.35;7.57;;;5.00;91.60;;;;;;5080644;28;20111;-55
2021/12/24 12:32:12;;;;;;;8.60;7.30;;;5.10;91.70;;;;;;5105977;28;20023;-53
2021/12/24 12:34:58;;;;;;;7.85;6.72;;;5.00;91.50;;;;;;5106926;28;20076;-55
2021/12/24 12:37:53;;;;;;;7.82;6.32;;;5.20;91.60;;;;;;5103752;28;20039;-55
2021/12/24 12:40:24;;;;;;;9.57;7.18;;;5.20;91.60;;;;;;5095389;28;20138;-55
2021/12/24 12:43:05;;;;;;;8.77;6.78;;;5.20;91.50;;;;;;5082522;28;20058;-56
2021/12/24 12:45:37;;;;;;;8.85;7.05;;;5.20;91.60;;;;;;5113224;28;20035;-53
2021/12/24 12:48:07;;;;;;;10.77;7.22;;;5.30;91.60;;;;;;5094564;28;20028;-56
2021/12/24 12:50:40;;;;;;;12.05;9.50;;;5.30;91.50;;;;;;5095744;28;20063;-56
2021/12/24 12:53:35;;;;;;;10.95;8.05;;;5.30;91.40;;;;;;5101399;28;20044;-55
2021/12/24 12:56:22;;;;;;;11.88;7.53;;;5.20;91.40;;;;;;5086580;27;20022;-56
2021/12/24 12:59:07;;;;;;;10.82;8.05;;;5.20;91.40;;;;;;5104723;27;20084;-52
2021/12/24 13:01:49;;;;;;;8.75;5.90;;;5.10;91.40;;;;;;5110491;27;20034;-54
2021/12/24 13:04:16;;;;;;;7.82;5.70;;;5.00;91.50;;;;;;5107018;28;20474;-59
2021/12/24 13:06:42;;;;;;;8.73;6.35;;;5.00;91.60;;;;;;5110553;28;20041;-60
2021/12/24 13:09:18;;;;;;;7.60;5.90;;;5.00;91.50;;;;;;5111530;28;20440;-60
2021/12/24 13:11:49;;;;;;;6.55;4.43;;;4.90;91.60;;;;;;5090208;27;20031;-60
2021/12/24 13:14:17;;;;;;;9.48;4.18;;;4.90;91.70;;;;;;5111176;28;20031;-58
2021/12/24 13:17:21;;;;;;;6.20;3.53;;;4.80;91.80;;;;;;5105896;28;20023;-58
2021/12/24 13:25:10;;;;;;;4.43;2.40;;;4.70;92.20;;;;;;5111572;28;20062;-55
2021/12/24 13:27:39;;;;;;;4.43;2.63;;;4.70;92.20;;;;;;5110402;28;20020;-55
2021/12/24 13:30:14;;;;;;;6.22;3.25;;;4.70;92.30;;;;;;5110614;28;20152;-55
2021/12/24 13:33:05;;;;;;;11.52;3.00;;;4.70;92.20;;;;;;5097006;28;20371;-56
2021/12/24 13:35:50;;;;;;;9.05;3.45;;;4.50;91.90;;;;;;5088231;28;20031;-57
2021/12/24 13:38:23;;;;;;;26.50;13.75;;;4.50;91.70;;;;;;5111782;28;20024;-62
2021/12/24 13:40:48;;;;;;;22.42;13.15;;;4.40;91.40;;;;;;5110175;28;20097;-61
2021/12/24 13:43:15;;;;;;;27.33;14.15;;;4.30;91.20;;;;;;5076575;28;20036;-60
2021/12/24 13:45:49;;;;;;;31.60;18.00;;;4.20;91.20;;;;;;5110694;28;20424;-61
2021/12/24 13:48:30;;;;;;;37.38;19.23;;;4.20;91.20;;;;;;5109777;28;20475;-60
2021/12/24 13:56:48;;;;;;;32.78;15.43;;;4.20;91.00;;;;;;5110715;28;20152;-53
2021/12/24 13:59:22;;;;;;;32.85;15.23;;;4.10;90.80;;;;;;5108325;28;20396;-54
2021/12/24 14:01:50;;;;;;;27.58;15.75;;;4.10;90.70;;;;;;5109766;28;20031;-54
2021/12/24 14:04:19;;;;;;;31.50;16.15;;;4.00;90.50;;;;;;5104698;28;20421;-56
2021/12/24 14:06:48;;;;;;;30.50;17.33;;;4.00;90.40;;;;;;5089507;28;20023;-55
2021/12/24 14:09:23;;;;;;;30.27;16.20;;;3.90;90.20;;;;;;5088058;28;20581;-50
2021/12/24 14:11:52;;;;;;;27.80;16.13;;;3.90;90.00;;;;;;5092663;28;20110;-51
2021/12/24 14:14:27;;;;;;;26.55;14.00;;;3.80;90.00;;;;;;5110353;28;20054;-50
2021/12/24 14:22:24;;;;;;;21.92;13.50;;;3.60;89.10;;;;;;5111458;28;20036;-51
2021/12/24 14:25:08;;;;;;;28.52;14.73;;;3.50;89.30;;;;;;5114447;28;20028;-51
2021/12/24 14:27:41;;;;;;;25.85;13.50;;;3.50;89.40;;;;;;5107936;28;20024;-51
2021/12/24 14:30:25;;;;;;;28.60;14.40;;;3.50;89.40;;;;;;5114345;28;20073;-49
2021/12/24 14:32:51;;;;;;;23.95;13.43;;;3.40;89.30;;;;;;5112671;28;20035;-46
2021/12/24 14:35:24;;;;;;;23.00;10.98;;;3.40;89.40;;;;;;5111339;28;20035;-48
2021/12/24 14:38:00;;;;;;;18.98;11.70;;;3.30;89.10;;;;;;5112218;28;20039;-48
2021/12/24 14:40:29;;;;;;;20.90;12.30;;;3.20;88.70;;;;;;5111370;28;20023;-50
2021/12/24 14:42:57;;;;;;;20.45;11.38;;;3.10;88.80;;;;;;5109820;28;20040;-53
2021/12/24 14:45:37;;;;;;;21.20;11.38;;;3.00;88.90;;;;;;5108507;28;20123;-47
2021/12/24 14:48:25;;;;;;;19.88;9.40;;;2.90;88.90;;;;;;5113157;28;20118;-46
2021/12/24 14:51:03;;;;;;;23.08;12.85;;;2.90;88.60;;;;;;5114481;28;20020;-48
2021/12/24 14:53:41;;;;;;;16.25;11.20;;;2.80;88.50;;;;;;5094781;28;20032;-47
2021/12/24 14:56:21;;;;;;;16.90;9.40;;;2.70;88.40;;;;;;5113321;28;20035;-47
2021/12/24 14:59:02;;;;;;;;;;;2.70;88.30;;;;;;5095949;28;20031;-48
2021/12/24 15:01:33;;;;;;;17.83;9.18;;;2.70;88.10;;;;;;5110583;28;19957;-47
2021/12/24 15:04:05;;;;;;;17.40;8.82;;;2.70;88.20;;;;;;5112421;28;20038;-49
2021/12/24 15:06:35;;;;;;;14.98;8.48;;;2.70;88.10;;;;;;5078695;28;20035;-51
2021/12/24 15:09:21;;;;;;;18.38;9.73;;;2.70;88.10;;;;;;5095015;28;20111;-46
2021/12/24 15:11:49;;;;;;;13.13;7.88;;;2.70;88.30;;;;;;5112867;28;20364;-47
2021/12/24 15:14:18;;;;;;;15.70;9.63;;;2.60;88.00;;;;;;5114429;28;20051;-48
2021/12/24 15:16:48;;;;;;;14.02;8.90;;;2.60;88.00;;;;;;5090700;28;20114;-52
2021/12/24 15:19:18;;;;;;;15.45;8.32;;;2.50;87.50;;;;;;5109637;27;20027;-45
2021/12/24 15:21:48;;;;;;;19.15;8.20;;;2.50;87.50;;;;;;5093649;28;20032;-48